Terminal Aerodrome Forecast
Issued by NWS

Home | Current Version | Previous Version | Text Only | Print | Product List | Glossary On
Versions: 1 2 3 4 5 6 7 8 9 10 11 12 13 14
467
FTUS45 KRIW 161723
TAFRKS
TAF
KRKS 161723Z 1618/1718 29009KT P6SM VCSH SCT030 OVC060
     FM162000 02007KT 2SM -SN SCT003 OVC012
     FM170200 04013KT 4SM -SN OVC015
     FM171000 04008KT P6SM OVC022
     FM171700 26013KT P6SM SCT100=

USA.gov is the U.S. government's official web portal to all federal, state and local government web resources and services.